createdAt,value
2022-12-25T00:00:02.510Z,1018.2
2022-12-25T00:01:02.533Z,1018.2
2022-12-25T00:02:02.512Z,1018.2
2022-12-25T00:03:02.859Z,1018.2
2022-12-25T00:04:02.813Z,1018.2
2022-12-25T00:05:02.615Z,1018.2
2022-12-25T00:06:02.574Z,1018.3
2022-12-25T00:07:02.517Z,1018.3
2022-12-25T00:08:02.407Z,1018.3
2022-12-25T00:09:02.342Z,1018.3
2022-12-25T00:10:02.292Z,1018.3
2022-12-25T00:11:02.203Z,1018.2
2022-12-25T00:12:02.141Z,1018.4
2022-12-25T00:13:01.924Z,1018.4
2022-12-25T00:14:01.919Z,1018.5
2022-12-25T00:15:01.843Z,1018.4
2022-12-25T00:16:01.866Z,1018.4
2022-12-25T00:17:01.863Z,1018.4
2022-12-25T00:18:01.797Z,1018.4
2022-12-25T00:19:01.830Z,1018.4
2022-12-25T00:20:02.680Z,1018.4
2022-12-25T00:21:02.631Z,1018.4
2022-12-25T00:22:02.623Z,1018.4
2022-12-25T00:23:02.560Z,1018.4
2022-12-25T00:24:02.446Z,1018.5
2022-12-25T00:25:02.414Z,1018.5
2022-12-25T00:26:02.345Z,1018.5
2022-12-25T00:27:02.259Z,1018.5
2022-12-25T00:28:02.156Z,1018.5
2022-12-25T00:29:02.130Z,1018.5
2022-12-25T00:30:02.224Z,1018.6
2022-12-25T00:31:02.143Z,1018.6
2022-12-25T00:32:02.498Z,1018.6
2022-12-25T00:33:02.222Z,1018.6
2022-12-25T00:34:02.140Z,1018.6
2022-12-25T00:35:02.041Z,1018.6
2022-12-25T00:36:01.909Z,1018.7
2022-12-25T00:37:01.778Z,1018.6
2022-12-25T00:38:01.798Z,1018.7
2022-12-25T00:39:01.711Z,1018.7
2022-12-25T00:40:01.698Z,1018.8
2022-12-25T00:41:01.724Z,1018.7
2022-12-25T00:42:01.743Z,1018.8
2022-12-25T00:43:01.801Z,1018.8
2022-12-25T00:44:01.726Z,1018.8
2022-12-25T00:45:01.945Z,1018.8
2022-12-25T00:46:02.159Z,1018.8
2022-12-25T00:47:02.108Z,1018.9
2022-12-25T00:48:01.892Z,1018.9
2022-12-25T00:49:01.807Z,1018.9
2022-12-25T00:50:01.820Z,1018.9
2022-12-25T00:51:01.746Z,1018.9
2022-12-25T00:52:02.664Z,1018.9
2022-12-25T00:53:02.654Z,1019
2022-12-25T00:54:02.624Z,1019
2022-12-25T00:55:02.538Z,1019
2022-12-25T00:56:02.434Z,1019
2022-12-25T00:57:02.337Z,1019.1
2022-12-25T00:58:02.324Z,1019.1
2022-12-25T00:59:02.467Z,1019.1
2022-12-25T01:00:02.188Z,1019.1
2022-12-25T01:01:02.276Z,1019.1
2022-12-25T01:02:02.379Z,1019.1
2022-12-25T01:03:02.837Z,1019
2022-12-25T01:04:02.639Z,1019
2022-12-25T01:05:02.545Z,1019
2022-12-25T01:06:02.537Z,1019
2022-12-25T01:07:02.462Z,1019
2022-12-25T01:08:02.346Z,1019
2022-12-25T01:09:02.306Z,1019.1
2022-12-25T01:10:02.263Z,1019.1
2022-12-25T01:11:02.118Z,1019.1
2022-12-25T01:12:02.044Z,1019.1
2022-12-25T01:13:01.926Z,1019.2
2022-12-25T01:14:01.925Z,1019.2
2022-12-25T01:15:01.936Z,1019.2
2022-12-25T01:16:01.878Z,1019.2
2022-12-25T01:17:02.448Z,1019.2
2022-12-25T01:18:12.942Z,1019.2
2022-12-25T01:19:01.776Z,1019.2
2022-12-25T01:20:01.921Z,1019.3
2022-12-25T01:21:01.693Z,1019.3
2022-12-25T01:22:01.719Z,1019.3
2022-12-25T01:23:01.771Z,1019.3
2022-12-25T01:24:02.665Z,1019.3
2022-12-25T01:25:02.643Z,1019.4
2022-12-25T01:26:02.567Z,1019.3
2022-12-25T01:27:02.484Z,1019.4
2022-12-25T01:28:02.383Z,1019.4
2022-12-25T01:29:02.326Z,1019.4
2022-12-25T01:30:02.300Z,1019.3
2022-12-25T01:31:02.180Z,1019.3
2022-12-25T01:32:02.256Z,1019.4
2022-12-25T01:33:01.958Z,1019.3
2022-12-25T01:34:01.950Z,1019.3
2022-12-25T01:35:01.913Z,1019.3
2022-12-25T01:36:01.716Z,1019.4
2022-12-25T01:37:02.687Z,1019.4
2022-12-25T01:38:02.609Z,1019.4
2022-12-25T01:39:02.565Z,1019.4
2022-12-25T01:40:02.471Z,1019.5
2022-12-25T01:41:02.393Z,1019.5
2022-12-25T01:42:02.388Z,1019.5
2022-12-25T01:43:02.259Z,1019.5
2022-12-25T01:44:02.186Z,1019.5
2022-12-25T01:45:02.092Z,1019.5
2022-12-25T01:46:02.174Z,1019.5
2022-12-25T01:47:02.039Z,1019.5
2022-12-25T01:48:01.960Z,1019.5
2022-12-25T01:49:01.868Z,1019.5
2022-12-25T01:50:01.881Z,1019.5
2022-12-25T01:51:01.784Z,1019.5
2022-12-25T01:52:02.654Z,1019.5
2022-12-25T01:53:02.623Z,1019.4
2022-12-25T01:54:02.602Z,1019.5
2022-12-25T01:55:02.477Z,1019.5
2022-12-25T01:56:02.398Z,1019.5
2022-12-25T01:57:02.346Z,1019.6
2022-12-25T01:58:02.367Z,1019.6
2022-12-25T01:59:02.298Z,1019.5
2022-12-25T02:00:02.254Z,1019.6
2022-12-25T02:01:02.494Z,1019.5
2022-12-25T02:02:02.592Z,1019.5
2022-12-25T02:03:02.563Z,1019.6
2022-12-25T02:04:02.314Z,1019.6
2022-12-25T02:05:02.328Z,1019.6
2022-12-25T02:06:02.255Z,1019.6
2022-12-25T02:07:02.217Z,1019.6
2022-12-25T02:08:02.113Z,1019.6
2022-12-25T02:09:01.971Z,1019.6
2022-12-25T02:10:01.946Z,1019.6
2022-12-25T02:11:01.814Z,1019.6
2022-12-25T02:12:01.722Z,1019.6
2022-12-25T02:13:01.719Z,1019.6
2022-12-25T02:14:02.677Z,1019.7
2022-12-25T02:15:06.921Z,1019.7
2022-12-25T02:16:02.787Z,1019.8
2022-12-25T02:17:01.902Z,1019.8
2022-12-25T02:18:02.687Z,1019.8
2022-12-25T02:19:02.613Z,1019.7
2022-12-25T02:20:02.529Z,1019.7
2022-12-25T02:21:02.559Z,1019.7
2022-12-25T02:22:02.448Z,1019.7
2022-12-25T02:23:02.385Z,1019.7
2022-12-25T02:24:02.324Z,1019.7
2022-12-25T02:25:02.156Z,1019.6
2022-12-25T02:26:02.120Z,1019.7
2022-12-25T02:27:02.063Z,1019.7
2022-12-25T02:28:01.942Z,1019.6
2022-12-25T02:29:01.882Z,1019.7
2022-12-25T02:30:01.831Z,1019.8
2022-12-25T02:31:01.819Z,1019.7
2022-12-25T02:32:02.784Z,1019.7
2022-12-25T02:33:02.568Z,1019.7
2022-12-25T02:34:02.497Z,1019.7
2022-12-25T02:35:02.457Z,1019.7
2022-12-25T02:36:02.339Z,1019.7
2022-12-25T02:37:02.335Z,1019.8
2022-12-25T02:38:02.283Z,1019.7
2022-12-25T02:39:02.206Z,1019.7
2022-12-25T02:40:02.175Z,1019.7
2022-12-25T02:41:02.004Z,1019.6
2022-12-25T02:42:01.962Z,1019.6
2022-12-25T02:43:01.842Z,1019.6
2022-12-25T02:44:01.751Z,1019.6
2022-12-25T02:45:01.706Z,1019.6
2022-12-25T02:46:03.101Z,1019.7
2022-12-25T02:47:02.634Z,1019.7
2022-12-25T02:48:02.515Z,1019.7
2022-12-25T02:49:02.480Z,1019.7
2022-12-25T02:50:02.450Z,1019.6
2022-12-25T02:51:02.384Z,1019.5
2022-12-25T02:52:02.350Z,1019.6
2022-12-25T02:53:02.179Z,1019.6
2022-12-25T02:54:02.158Z,1019.7
2022-12-25T02:55:02.176Z,1019.7
2022-12-25T02:56:02.177Z,1019.7
2022-12-25T02:57:02.095Z,1019.5
2022-12-25T02:58:02.104Z,1019.6
2022-12-25T02:59:02.024Z,1019.6
2022-12-25T03:00:02.839Z,1019.6
2022-12-25T03:01:01.796Z,1019.6
2022-12-25T03:02:03.072Z,1019.6
2022-12-25T03:03:02.002Z,1019.7
2022-12-25T03:04:01.754Z,1019.6
2022-12-25T03:05:01.697Z,1019.7
2022-12-25T03:06:01.781Z,1019.7
2022-12-25T03:07:02.702Z,1019.6
2022-12-25T03:08:02.660Z,1019.6
2022-12-25T03:09:02.547Z,1019.6
2022-12-25T03:10:02.599Z,1019.6
2022-12-25T03:11:02.493Z,1019.6
2022-12-25T03:12:02.405Z,1019.7
2022-12-25T03:13:02.334Z,1019.6
2022-12-25T03:14:02.324Z,1019.6
2022-12-25T03:15:02.225Z,1019.6
2022-12-25T03:16:02.193Z,1019.6
2022-12-25T03:17:02.112Z,1019.6
2022-12-25T03:18:01.824Z,1019.7
2022-12-25T03:19:01.756Z,1019.7
2022-12-25T03:20:02.666Z,1019.7
2022-12-25T03:21:02.614Z,1019.7
2022-12-25T03:22:02.582Z,1019.7
2022-12-25T03:23:02.514Z,1019.6
2022-12-25T03:24:02.485Z,1019.7
2022-12-25T03:25:02.353Z,1019.7
2022-12-25T03:26:02.347Z,1019.7
2022-12-25T03:27:02.282Z,1019.7
2022-12-25T03:28:02.216Z,1019.7
2022-12-25T03:29:02.132Z,1019.6
2022-12-25T03:30:02.089Z,1019.7
2022-12-25T03:31:02.302Z,1019.7
2022-12-25T03:32:01.952Z,1019.7
2022-12-25T03:33:44.824Z,1019.7
2022-12-25T03:34:02.073Z,1019.8
2022-12-25T03:35:01.948Z,1019.8
2022-12-25T03:36:01.797Z,1019.8
2022-12-25T03:37:01.724Z,1019.8
2022-12-25T03:38:02.687Z,1019.8
2022-12-25T03:39:02.652Z,1019.9
2022-12-25T03:40:02.603Z,1019.9
2022-12-25T03:41:02.507Z,1019.9
2022-12-25T03:42:02.387Z,1019.9
2022-12-25T03:43:02.327Z,1019.9
2022-12-25T03:44:02.273Z,1020
2022-12-25T03:45:02.140Z,1019.9
2022-12-25T03:46:02.206Z,1019.9
2022-12-25T03:47:02.004Z,1019.9
2022-12-25T03:48:01.915Z,1019.9
2022-12-25T03:49:01.800Z,1019.9
2022-12-25T03:50:01.701Z,1019.9
2022-12-25T03:51:02.716Z,1019.9
2022-12-25T03:52:02.650Z,1019.9
2022-12-25T03:53:02.520Z,1019.9
2022-12-25T03:54:02.540Z,1019.9
2022-12-25T03:55:02.487Z,1019.8
2022-12-25T03:56:02.353Z,1019.9
2022-12-25T03:57:02.305Z,1019.9
2022-12-25T03:58:02.159Z,1019.9
2022-12-25T03:59:02.086Z,1020
2022-12-25T04:00:01.971Z,1020
2022-12-25T04:01:02.093Z,1020
2022-12-25T04:02:02.075Z,1020
2022-12-25T04:03:02.020Z,1020
2022-12-25T04:04:01.777Z,1020
2022-12-25T04:05:01.741Z,1020.1
2022-12-25T04:06:01.696Z,1020
2022-12-25T04:07:01.752Z,1020.1
2022-12-25T04:08:01.881Z,1020.1
2022-12-25T04:09:02.648Z,1020.1
2022-12-25T04:10:02.599Z,1020.2
2022-12-25T04:11:02.549Z,1020.1
2022-12-25T04:12:03.710Z,1020.1
2022-12-25T04:13:02.407Z,1020.2
2022-12-25T04:14:02.362Z,1020.2
2022-12-25T04:15:02.319Z,1020.2
2022-12-25T04:16:02.484Z,1020.2
2022-12-25T04:17:02.156Z,1020.2
2022-12-25T04:18:02.115Z,1020.2
2022-12-25T04:19:02.024Z,1020.3
2022-12-25T04:20:02.105Z,1020.3
2022-12-25T04:21:02.071Z,1020.3
2022-12-25T04:22:02.024Z,1020.2
2022-12-25T04:23:01.956Z,1020.2
2022-12-25T04:24:01.766Z,1020.3
2022-12-25T04:25:01.703Z,1020.3
2022-12-25T04:26:02.719Z,1020.3
2022-12-25T04:27:02.690Z,1020.3
2022-12-25T04:28:02.579Z,1020.3
2022-12-25T04:29:02.518Z,1020.3
2022-12-25T04:30:02.532Z,1020.3
2022-12-25T04:31:02.456Z,1020.2
2022-12-25T04:32:02.476Z,1020.3
2022-12-25T04:33:02.395Z,1020.3
2022-12-25T04:34:02.293Z,1020.3
2022-12-25T04:35:02.244Z,1020.3
2022-12-25T04:36:02.076Z,1020.3
2022-12-25T04:37:01.970Z,1020.4
2022-12-25T04:38:01.921Z,1020.3
2022-12-25T04:39:01.835Z,1020.3
2022-12-25T04:40:01.759Z,1020.3
2022-12-25T04:41:02.674Z,1020.3
2022-12-25T04:42:02.618Z,1020.3
2022-12-25T04:43:02.579Z,1020.3
2022-12-25T04:44:02.498Z,1020.3
2022-12-25T04:45:02.424Z,1020.3
2022-12-25T04:46:02.659Z,1020.4
2022-12-25T04:47:11.940Z,1020.3
2022-12-25T04:48:01.686Z,1020.4
2022-12-25T04:49:02.689Z,1020.3
2022-12-25T04:50:02.604Z,1020.4
2022-12-25T04:51:02.545Z,1020.3
2022-12-25T04:52:02.481Z,1020.3
2022-12-25T04:53:02.419Z,1020.3
2022-12-25T04:54:02.392Z,1020.3
2022-12-25T04:55:02.319Z,1020.3
2022-12-25T04:56:02.190Z,1020.3
2022-12-25T04:57:02.111Z,1020.3
2022-12-25T04:58:02.069Z,1020.3
2022-12-25T04:59:02.012Z,1020.3
2022-12-25T05:00:01.895Z,1020.3
2022-12-25T05:01:01.775Z,1020.3
2022-12-25T05:02:03.044Z,1020.3
2022-12-25T05:03:02.423Z,1020.3
2022-12-25T05:04:02.319Z,1020.2
2022-12-25T05:05:02.314Z,1020.2
2022-12-25T05:06:02.185Z,1020.2
2022-12-25T05:07:02.095Z,1020.3
2022-12-25T05:08:02.040Z,1020.3
2022-12-25T05:09:01.974Z,1020.3
2022-12-25T05:10:02.080Z,1020.3
2022-12-25T05:11:01.876Z,1020.3
2022-12-25T05:12:01.785Z,1020.3
2022-12-25T05:13:01.751Z,1020.3
2022-12-25T05:14:02.933Z,1020.3
2022-12-25T05:15:01.736Z,1020.3
2022-12-25T05:16:01.844Z,1020.3
2022-12-25T05:17:02.531Z,1020.3
2022-12-25T05:18:02.475Z,1020.4
2022-12-25T05:19:02.406Z,1020.3
2022-12-25T05:20:02.333Z,1020.4
2022-12-25T05:21:02.254Z,1020.4
2022-12-25T05:22:02.254Z,1020.4
2022-12-25T05:23:02.204Z,1020.4
2022-12-25T05:24:02.086Z,1020.5
2022-12-25T05:25:02.055Z,1020.4
2022-12-25T05:26:01.908Z,1020.4
2022-12-25T05:27:01.884Z,1020.4
2022-12-25T05:28:01.792Z,1020.4
2022-12-25T05:29:01.715Z,1020.5
2022-12-25T05:30:01.720Z,1020.5
2022-12-25T05:31:02.962Z,1020.5
2022-12-25T05:32:02.559Z,1020.5
2022-12-25T05:33:02.423Z,1020.5
2022-12-25T05:34:02.354Z,1020.6
2022-12-25T05:35:02.343Z,1020.6
2022-12-25T05:36:02.273Z,1020.6
2022-12-25T05:37:02.096Z,1020.6
2022-12-25T05:38:02.030Z,1020.6
2022-12-25T05:39:01.973Z,1020.6
2022-12-25T05:40:01.950Z,1020.6
2022-12-25T05:41:01.832Z,1020.7
2022-12-25T05:42:01.718Z,1020.7
2022-12-25T05:43:01.732Z,1020.7
2022-12-25T05:44:02.652Z,1020.7
2022-12-25T05:45:02.629Z,1020.8
2022-12-25T05:46:02.521Z,1020.8
2022-12-25T05:47:02.527Z,1020.8
2022-12-25T05:48:02.324Z,1020.8
2022-12-25T05:49:02.203Z,1020.8
2022-12-25T05:50:02.048Z,1020.8
2022-12-25T05:51:01.962Z,1020.8
2022-12-25T05:52:01.880Z,1020.8
2022-12-25T05:53:09.151Z,1020.8
2022-12-25T05:54:01.883Z,1020.8
2022-12-25T05:55:01.793Z,1020.8
2022-12-25T05:56:01.739Z,1020.7
2022-12-25T05:57:01.727Z,1020.7
2022-12-25T05:58:01.701Z,1020.7
2022-12-25T05:59:01.764Z,1020.7
2022-12-25T06:00:01.784Z,1020.7
2022-12-25T06:01:01.719Z,1020.6
2022-12-25T06:02:02.395Z,1020.7
2022-12-25T06:03:02.872Z,1020.7
2022-12-25T06:04:13.142Z,1020.7
2022-12-25T06:05:01.947Z,1020.8
2022-12-25T06:06:01.862Z,1020.8
2022-12-25T06:07:01.774Z,1020.8
2022-12-25T06:08:01.761Z,1020.9
2022-12-25T06:09:02.677Z,1020.9
2022-12-25T06:10:02.600Z,1020.9
2022-12-25T06:11:02.615Z,1020.9
2022-12-25T06:12:02.535Z,1020.9
2022-12-25T06:13:02.434Z,1021
2022-12-25T06:14:02.387Z,1021
2022-12-25T06:15:02.379Z,1021
2022-12-25T06:16:02.412Z,1021
2022-12-25T06:17:02.677Z,1020.9
2022-12-25T06:18:02.448Z,1021
2022-12-25T06:19:02.357Z,1020.9
2022-12-25T06:20:02.365Z,1021
2022-12-25T06:21:02.245Z,1020.9
2022-12-25T06:22:02.178Z,1021
2022-12-25T06:23:02.123Z,1021
2022-12-25T06:24:02.287Z,1021
2022-12-25T06:25:02.104Z,1021.1
2022-12-25T06:26:02.045Z,1021.1
2022-12-25T06:27:01.955Z,1021.1
2022-12-25T06:28:01.874Z,1021.1
2022-12-25T06:29:01.743Z,1021.1
2022-12-25T06:30:01.696Z,1021
2022-12-25T06:31:02.632Z,1021.1
2022-12-25T06:32:02.888Z,1021.1
2022-12-25T06:33:02.620Z,1021.1
2022-12-25T06:34:02.537Z,1021.1
2022-12-25T06:35:02.557Z,1021.1
2022-12-25T06:36:02.471Z,1021.1
2022-12-25T06:37:02.366Z,1021.2
2022-12-25T06:38:02.364Z,1021.2
2022-12-25T06:39:02.263Z,1021.2
2022-12-25T06:40:02.258Z,1021.3
2022-12-25T06:41:02.080Z,1021.2
2022-12-25T06:42:02.030Z,1021.3
2022-12-25T06:43:01.991Z,1021.2
2022-12-25T06:44:01.978Z,1021.3
2022-12-25T06:45:01.812Z,1021.2
2022-12-25T06:46:01.921Z,1021.3
2022-12-25T06:47:01.713Z,1021.3
2022-12-25T06:48:01.774Z,1021.3
2022-12-25T06:49:02.703Z,1021.3
2022-12-25T06:50:02.638Z,1021.4
2022-12-25T06:51:02.654Z,1021.4
2022-12-25T06:52:02.580Z,1021.5
2022-12-25T06:53:02.469Z,1021.5
2022-12-25T06:54:02.409Z,1021.5
2022-12-25T06:55:02.400Z,1021.5
2022-12-25T06:56:02.328Z,1021.5
2022-12-25T06:57:02.182Z,1021.6
2022-12-25T06:58:02.079Z,1021.5
2022-12-25T06:59:02.068Z,1021.5
2022-12-25T07:00:01.980Z,1021.5
2022-12-25T07:01:02.010Z,1021.5
2022-12-25T07:02:02.432Z,1021.6
2022-12-25T07:03:02.766Z,1021.6
2022-12-25T07:04:02.637Z,1021.6
2022-12-25T07:05:02.464Z,1021.7
2022-12-25T07:06:02.465Z,1021.8
2022-12-25T07:07:09.933Z,1021.7
2022-12-25T07:08:01.778Z,1021.8
2022-12-25T07:09:02.708Z,1021.8
2022-12-25T07:10:02.605Z,1021.7
2022-12-25T07:11:02.634Z,1021.8
2022-12-25T07:12:02.521Z,1021.8
2022-12-25T07:13:02.462Z,1021.9
2022-12-25T07:14:02.400Z,1021.9
2022-12-25T07:15:02.321Z,1021.9
2022-12-25T07:16:02.492Z,1022
2022-12-25T07:17:02.421Z,1022.1
2022-12-25T07:18:02.139Z,1022
2022-12-25T07:19:02.132Z,1022.1
2022-12-25T07:20:02.065Z,1022.1
2022-12-25T07:21:01.981Z,1022.1
2022-12-25T07:22:01.888Z,1022.1
2022-12-25T07:23:01.823Z,1022.1
2022-12-25T07:24:02.504Z,1022.1
2022-12-25T07:25:02.418Z,1022.1
2022-12-25T07:26:02.398Z,1022.1
2022-12-25T07:27:02.390Z,1022.1
2022-12-25T07:28:02.277Z,1022.1
2022-12-25T07:29:02.212Z,1022.1
2022-12-25T07:30:02.068Z,1022.1
2022-12-25T07:31:02.058Z,1022.1
2022-12-25T07:32:02.177Z,1022.2
2022-12-25T07:33:02.070Z,1022.1
2022-12-25T07:34:01.933Z,1022.1
2022-12-25T07:35:01.932Z,1022.1
2022-12-25T07:36:01.785Z,1022.1
2022-12-25T07:37:01.778Z,1022.1
2022-12-25T07:38:01.713Z,1022.1
2022-12-25T07:39:02.773Z,1022.2
2022-12-25T07:40:02.605Z,1022.2
2022-12-25T07:41:02.603Z,1022.2
2022-12-25T07:42:02.499Z,1022.2
2022-12-25T07:43:02.549Z,1022.1
2022-12-25T07:44:02.449Z,1022.2
2022-12-25T07:45:02.240Z,1022.2
2022-12-25T07:46:02.558Z,1022.2
2022-12-25T07:47:02.473Z,1022.1
2022-12-25T07:48:15.392Z,1022.1
2022-12-25T07:49:02.171Z,1022
2022-12-25T07:50:02.257Z,1022
2022-12-25T07:51:02.099Z,1022
2022-12-25T07:52:02.115Z,1022.1
2022-12-25T07:53:01.845Z,1022.1
2022-12-25T07:54:01.802Z,1022
2022-12-25T07:55:01.753Z,1022
2022-12-25T07:56:01.848Z,1022.1
2022-12-25T07:57:01.701Z,1022
2022-12-25T07:58:02.759Z,1022
2022-12-25T07:59:02.691Z,1022
2022-12-25T08:00:02.752Z,1022
2022-12-25T08:01:02.802Z,1022
2022-12-25T08:02:02.946Z,1022
2022-12-25T08:03:02.936Z,1022
2022-12-25T08:04:02.216Z,1022.1
2022-12-25T08:05:02.159Z,1022
2022-12-25T08:06:02.026Z,1022.1
2022-12-25T08:07:01.985Z,1022
2022-12-25T08:08:01.805Z,1022
2022-12-25T08:09:01.769Z,1022.1
2022-12-25T08:10:01.713Z,1022.1
2022-12-25T08:11:01.791Z,1022
2022-12-25T08:12:02.778Z,1022.1
2022-12-25T08:13:02.816Z,1022.1
2022-12-25T08:14:02.585Z,1022
2022-12-25T08:15:02.542Z,1022
2022-12-25T08:16:02.495Z,1022
2022-12-25T08:17:02.572Z,1022
2022-12-25T08:18:02.337Z,1022.1
2022-12-25T08:19:02.376Z,1022.1
2022-12-25T08:20:02.311Z,1022.1
2022-12-25T08:21:02.087Z,1022.2
2022-12-25T08:22:02.014Z,1022.2
2022-12-25T08:23:02.208Z,1022.1
2022-12-25T08:24:02.072Z,1022.1
2022-12-25T08:25:01.877Z,1022.1
2022-12-25T08:26:06.195Z,1022.1
2022-12-25T08:27:01.895Z,1022
2022-12-25T08:28:01.971Z,1022
2022-12-25T08:29:01.717Z,1022
2022-12-25T08:30:01.820Z,1022
2022-12-25T08:31:01.938Z,1022
2022-12-25T08:32:02.605Z,1022
2022-12-25T08:33:02.577Z,1022
2022-12-25T08:34:02.452Z,1021.9
2022-12-25T08:35:02.604Z,1021.9
2022-12-25T08:36:02.373Z,1021.8
2022-12-25T08:37:02.384Z,1021.9
2022-12-25T08:38:02.297Z,1021.9
2022-12-25T08:39:04.032Z,1022
2022-12-25T08:40:01.818Z,1021.9
2022-12-25T08:41:01.767Z,1021.9
2022-12-25T08:42:02.790Z,1021.9
2022-12-25T08:43:02.591Z,1021.9
2022-12-25T08:44:02.659Z,1021.9
2022-12-25T08:45:02.439Z,1021.9
2022-12-25T08:46:02.693Z,1022
2022-12-25T08:47:02.578Z,1022.1
2022-12-25T08:48:02.414Z,1022.1
2022-12-25T08:49:02.431Z,1022.2
2022-12-25T08:50:03.004Z,1022.1
2022-12-25T08:51:01.782Z,1022.2
2022-12-25T08:52:01.785Z,1022.1
2022-12-25T08:53:02.724Z,1022.2
2022-12-25T08:54:02.576Z,1022.1
2022-12-25T08:55:02.646Z,1022.2
2022-12-25T08:56:02.466Z,1022.3
2022-12-25T08:57:03.665Z,1022.3
2022-12-25T08:58:02.487Z,1022.3
2022-12-25T08:59:02.359Z,1022.3
2022-12-25T09:00:02.309Z,1022.3
2022-12-25T09:01:02.542Z,1022.3
2022-12-25T09:02:02.295Z,1022.3
2022-12-25T09:03:02.912Z,1022.2
2022-12-25T09:04:01.762Z,1022.3
2022-12-25T09:05:02.777Z,1022.3
2022-12-25T09:06:02.608Z,1022.4
2022-12-25T09:07:02.666Z,1022.3
2022-12-25T09:08:02.506Z,1022.3
2022-12-25T09:09:02.517Z,1022.4
2022-12-25T09:10:02.471Z,1022.4
2022-12-25T09:11:02.289Z,1022.3
2022-12-25T09:12:02.374Z,1022.4
2022-12-25T09:13:02.241Z,1022.4
2022-12-25T09:14:01.985Z,1022.3
2022-12-25T09:15:02.077Z,1022.4
2022-12-25T09:16:02.116Z,1022.3
2022-12-25T09:17:01.768Z,1022.4
2022-12-25T09:18:01.803Z,1022.5
2022-12-25T09:19:02.754Z,1022.5
2022-12-25T09:20:02.693Z,1022.4
2022-12-25T09:21:02.582Z,1022.4
2022-12-25T09:22:02.528Z,1022.4
2022-12-25T09:23:02.585Z,1022.5
2022-12-25T09:24:02.400Z,1022.4
2022-12-25T09:25:02.431Z,1022.4
2022-12-25T09:26:02.391Z,1022.4
2022-12-25T09:27:02.203Z,1022.4
2022-12-25T09:28:02.208Z,1022.4
2022-12-25T09:29:02.011Z,1022.5
2022-12-25T09:30:02.035Z,1022.5
2022-12-25T09:31:01.900Z,1022.4
2022-12-25T09:32:01.986Z,1022.3
2022-12-25T09:33:01.950Z,1022.4
2022-12-25T09:34:01.750Z,1022.4
2022-12-25T09:35:01.887Z,1022.4
2022-12-25T09:36:01.747Z,1022.4
2022-12-25T09:37:01.768Z,1022.4
2022-12-25T09:38:02.840Z,1022.4
2022-12-25T09:39:02.679Z,1022.5
2022-12-25T09:40:02.748Z,1022.5
2022-12-25T09:41:02.538Z,1022.5
2022-12-25T09:42:02.504Z,1022.5
2022-12-25T09:43:02.441Z,1022.5
2022-12-25T09:44:02.487Z,1022.5
2022-12-25T09:45:02.350Z,1022.5
2022-12-25T09:46:02.494Z,1022.5
2022-12-25T09:47:02.449Z,1022.5
2022-12-25T09:48:02.360Z,1022.7
2022-12-25T09:49:02.254Z,1022.6
2022-12-25T09:50:02.163Z,1022.6
2022-12-25T09:51:02.172Z,1022.6
2022-12-25T09:52:02.002Z,1022.6
2022-12-25T09:53:01.987Z,1022.6
2022-12-25T09:54:01.790Z,1022.6
2022-12-25T09:55:01.860Z,1022.6
2022-12-25T09:56:01.701Z,1022.6
2022-12-25T09:57:01.791Z,1022.6
2022-12-25T09:58:01.712Z,1022.6
2022-12-25T09:59:01.845Z,1022.6
2022-12-25T10:00:01.781Z,1022.6
2022-12-25T10:01:01.782Z,1022.6
2022-12-25T10:02:02.147Z,1022.6
2022-12-25T10:03:03.021Z,1022.5
2022-12-25T10:04:01.893Z,1022.5
2022-12-25T10:05:01.888Z,1022.6
2022-12-25T10:06:01.735Z,1022.5
2022-12-25T10:07:01.865Z,1022.4
2022-12-25T10:08:01.705Z,1022.5
2022-12-25T10:09:01.811Z,1022.5
2022-12-25T10:10:02.746Z,1022.5
2022-12-25T10:11:02.608Z,1022.6
2022-12-25T10:12:02.686Z,1022.5
2022-12-25T10:13:02.490Z,1022.6
2022-12-25T10:14:02.552Z,1022.5
2022-12-25T10:15:02.508Z,1022.5
2022-12-25T10:16:02.493Z,1022.6
2022-12-25T10:17:02.309Z,1022.5
2022-12-25T10:18:02.481Z,1022.5
2022-12-25T10:19:02.310Z,1022.4
2022-12-25T10:20:02.344Z,1022.4
2022-12-25T10:21:02.123Z,1022.4
2022-12-25T10:22:01.952Z,1022.3
2022-12-25T10:23:02.099Z,1022.4
2022-12-25T10:24:01.901Z,1022.3
2022-12-25T10:25:01.869Z,1022.3
2022-12-25T10:26:01.772Z,1022.4
2022-12-25T10:27:02.777Z,1022.4
2022-12-25T10:28:02.615Z,1022.4
2022-12-25T10:29:02.638Z,1022.5
2022-12-25T10:30:02.543Z,1022.4
2022-12-25T10:31:02.704Z,1022.4
2022-12-25T10:32:02.510Z,1022.3
2022-12-25T10:33:02.282Z,1022.3
2022-12-25T10:34:02.320Z,1022.3
2022-12-25T10:35:02.261Z,1022.2
2022-12-25T10:36:02.115Z,1022.2
2022-12-25T10:37:02.152Z,1022.3
2022-12-25T10:38:02.011Z,1022.4
2022-12-25T10:39:02.010Z,1022.3
2022-12-25T10:40:01.753Z,1022.2
2022-12-25T10:41:02.773Z,1022.1
2022-12-25T10:42:02.597Z,1022.2
2022-12-25T10:43:02.623Z,1022.1
2022-12-25T10:44:02.472Z,1022.1
2022-12-25T10:45:02.495Z,1022.1
2022-12-25T10:46:02.577Z,1022.2
2022-12-25T10:47:02.146Z,1022.1
2022-12-25T10:48:08.288Z,1022.2
2022-12-25T10:49:02.038Z,1022.2
2022-12-25T10:50:02.012Z,1022.2
2022-12-25T10:51:01.833Z,1022.2
2022-12-25T10:52:01.890Z,1022.2
2022-12-25T10:53:01.700Z,1022.2
2022-12-25T10:54:02.761Z,1022.2
2022-12-25T10:55:02.622Z,1022.1
2022-12-25T10:56:02.691Z,1022.1
2022-12-25T10:57:02.569Z,1022.1
2022-12-25T10:58:02.619Z,1022.1
2022-12-25T10:59:02.415Z,1022.1
2022-12-25T11:00:02.519Z,1022.1
2022-12-25T11:01:02.369Z,1022.1
2022-12-25T11:02:02.556Z,1022.1
2022-12-25T11:03:02.933Z,1022
2022-12-25T11:04:02.002Z,1022.1
2022-12-25T11:05:01.779Z,1022.1
2022-12-25T11:06:02.745Z,1022.1
2022-12-25T11:07:02.594Z,1022.1
2022-12-25T11:08:02.663Z,1022
2022-12-25T11:09:02.450Z,1022
2022-12-25T11:10:06.378Z,1022
2022-12-25T11:11:02.120Z,1022.1
2022-12-25T11:12:02.165Z,1022
2022-12-25T11:13:02.029Z,1022.1
2022-12-25T11:14:01.974Z,1022
2022-12-25T11:15:01.835Z,1021.9
2022-12-25T11:16:02.066Z,1022
2022-12-25T11:17:02.588Z,1022
2022-12-25T11:18:02.408Z,1021.9
2022-12-25T11:19:02.514Z,1021.9
2022-12-25T11:20:02.513Z,1021.9
2022-12-25T11:21:02.240Z,1022
2022-12-25T11:22:02.267Z,1021.9
2022-12-25T11:23:02.242Z,1021.9
2022-12-25T11:24:02.023Z,1021.9
2022-12-25T11:25:02.049Z,1021.8
2022-12-25T11:26:01.805Z,1021.8
2022-12-25T11:27:01.923Z,1021.8
2022-12-25T11:28:01.726Z,1021.9
2022-12-25T11:29:02.729Z,1021.8
2022-12-25T11:30:02.595Z,1021.8
2022-12-25T11:31:02.818Z,1021.9
2022-12-25T11:32:02.460Z,1021.9
2022-12-25T11:33:02.442Z,1021.8
2022-12-25T11:34:02.386Z,1021.8
2022-12-25T11:35:02.278Z,1021.9
2022-12-25T11:36:02.248Z,1021.9
2022-12-25T11:37:02.022Z,1021.8
2022-12-25T11:38:01.997Z,1021.9
2022-12-25T11:39:01.803Z,1021.9
2022-12-25T11:40:01.803Z,1021.9
2022-12-25T11:41:02.746Z,1021.9
2022-12-25T11:42:02.580Z,1021.8
2022-12-25T11:43:08.744Z,1021.9
2022-12-25T11:44:02.467Z,1021.8
2022-12-25T11:45:02.504Z,1021.8
2022-12-25T11:46:02.407Z,1021.9
2022-12-25T11:47:02.354Z,1021.7
2022-12-25T11:48:02.331Z,1021.8
2022-12-25T11:49:02.094Z,1021.7
2022-12-25T11:50:02.061Z,1021.7
2022-12-25T11:51:01.869Z,1021.7
2022-12-25T11:52:01.881Z,1021.7
2022-12-25T11:53:01.724Z,1021.7
2022-12-25T11:54:01.759Z,1021.7
2022-12-25T11:55:02.810Z,1021.8
2022-12-25T11:56:02.610Z,1021.7
2022-12-25T11:57:02.638Z,1021.8
2022-12-25T11:58:02.554Z,1021.8
2022-12-25T11:59:02.539Z,1021.7
2022-12-25T12:00:02.569Z,1021.7
2022-12-25T12:01:02.271Z,1021.7
2022-12-25T12:02:02.678Z,1021.7
2022-12-25T12:03:03.052Z,1021.7
2022-12-25T12:04:02.052Z,1021.8
2022-12-25T12:05:01.876Z,1021.7
2022-12-25T12:06:01.728Z,1021.6
2022-12-25T12:07:02.803Z,1021.7
2022-12-25T12:08:02.647Z,1021.7
2022-12-25T12:09:02.664Z,1021.6
2022-12-25T12:10:02.518Z,1021.7
2022-12-25T12:11:02.539Z,1021.7
2022-12-25T12:12:02.495Z,1021.7
2022-12-25T12:13:02.300Z,1021.7
2022-12-25T12:14:02.211Z,1021.7
2022-12-25T12:15:02.240Z,1021.7
2022-12-25T12:16:02.302Z,1021.7
2022-12-25T12:17:02.249Z,1021.7
2022-12-25T12:18:02.150Z,1021.6
2022-12-25T12:19:02.024Z,1021.5
2022-12-25T12:20:02.009Z,1021.6
2022-12-25T12:21:01.887Z,1021.6
2022-12-25T12:22:01.770Z,1021.6
2022-12-25T12:23:02.805Z,1021.6
2022-12-25T12:24:02.626Z,1021.6
2022-12-25T12:25:02.641Z,1021.6
2022-12-25T12:26:02.507Z,1021.5
2022-12-25T12:27:02.561Z,1021.5
2022-12-25T12:28:06.409Z,1021.5
2022-12-25T12:29:02.137Z,1021.6
2022-12-25T12:30:02.238Z,1021.5
2022-12-25T12:31:01.983Z,1021.6
2022-12-25T12:32:02.141Z,1021.6